sensor_id;sensor_type;location;lat;lon;timestamp;P1;durP1;ratioP1;P2;durP2;ratioP2
61483;SDS011;47349;55.640;37.692;2023-08-06T00:01:21;16.25;;;9.98;;
61483;SDS011;47349;55.640;37.692;2023-08-06T00:04:33;15.60;;;9.85;;
61483;SDS011;47349;55.640;37.692;2023-08-06T00:08:12;19.73;;;10.40;;
61483;SDS011;47349;55.640;37.692;2023-08-06T00:11:36;17.98;;;10.93;;
61483;SDS011;47349;55.640;37.692;2023-08-06T00:14:37;19.20;;;11.48;;
61483;SDS011;47349;55.640;37.692;2023-08-06T00:17:19;18.10;;;11.95;;
61483;SDS011;47349;55.640;37.692;2023-08-06T00:20:14;19.27;;;12.57;;
61483;SDS011;47349;55.640;37.692;2023-08-06T00:23:00;16.58;;;11.63;;
61483;SDS011;47349;55.640;37.692;2023-08-06T00:25:43;18.33;;;11.07;;
61483;SDS011;47349;55.640;37.692;2023-08-06T00:28:28;16.58;;;12.07;;
61483;SDS011;47349;55.640;37.692;2023-08-06T00:31:09;18.95;;;11.80;;
61483;SDS011;47349;55.640;37.692;2023-08-06T00:33:51;19.27;;;12.02;;
61483;SDS011;47349;55.640;37.692;2023-08-06T00:36:34;22.95;;;12.20;;
61483;SDS011;47349;55.640;37.692;2023-08-06T00:39:20;20.77;;;12.23;;
61483;SDS011;47349;55.640;37.692;2023-08-06T00:42:23;20.52;;;12.40;;
61483;SDS011;47349;55.640;37.692;2023-08-06T00:45:15;18.60;;;11.57;;
61483;SDS011;47349;55.640;37.692;2023-08-06T00:47:58;18.38;;;11.73;;
61483;SDS011;47349;55.640;37.692;2023-08-06T00:50:59;17.30;;;11.52;;
61483;SDS011;47349;55.640;37.692;2023-08-06T00:54:03;16.15;;;11.25;;
61483;SDS011;47349;55.640;37.692;2023-08-06T00:56:49;15.32;;;11.13;;
61483;SDS011;47349;55.640;37.692;2023-08-06T00:59:42;19.10;;;11.70;;
61483;SDS011;47349;55.640;37.692;2023-08-06T01:02:24;16.90;;;11.82;;
61483;SDS011;47349;55.640;37.692;2023-08-06T01:05:24;21.75;;;12.00;;
61483;SDS011;47349;55.640;37.692;2023-08-06T01:08:11;14.38;;;11.27;;
61483;SDS011;47349;55.640;37.692;2023-08-06T01:11:33;20.65;;;12.02;;
61483;SDS011;47349;55.640;37.692;2023-08-06T01:15:31;17.08;;;10.68;;
61483;SDS011;47349;55.640;37.692;2023-08-06T01:17:53;23.85;;;11.93;;
61483;SDS011;47349;55.640;37.692;2023-08-06T01:20:35;23.20;;;11.20;;
61483;SDS011;47349;55.640;37.692;2023-08-06T01:23:20;15.68;;;11.40;;
61483;SDS011;47349;55.640;37.692;2023-08-06T01:29:02;16.00;;;10.30;;
61483;SDS011;47349;55.640;37.692;2023-08-06T01:31:48;18.80;;;11.13;;
61483;SDS011;47349;55.640;37.692;2023-08-06T01:34:33;15.23;;;10.40;;
61483;SDS011;47349;55.640;37.692;2023-08-06T01:37:16;14.48;;;10.25;;
61483;SDS011;47349;55.640;37.692;2023-08-06T01:39:58;14.88;;;11.20;;
61483;SDS011;47349;55.640;37.692;2023-08-06T01:42:39;15.43;;;11.00;;
61483;SDS011;47349;55.640;37.692;2023-08-06T01:45:21;18.77;;;11.20;;
61483;SDS011;47349;55.640;37.692;2023-08-06T01:48:02;18.20;;;10.55;;
61483;SDS011;47349;55.640;37.692;2023-08-06T01:50:44;16.95;;;11.23;;
61483;SDS011;47349;55.640;37.692;2023-08-06T01:53:25;13.82;;;9.80;;
61483;SDS011;47349;55.640;37.692;2023-08-06T01:56:07;15.93;;;10.02;;
61483;SDS011;47349;55.640;37.692;2023-08-06T01:59:08;15.70;;;10.25;;
61483;SDS011;47349;55.640;37.692;2023-08-06T02:01:50;16.52;;;10.60;;
61483;SDS011;47349;55.640;37.692;2023-08-06T02:04:31;14.27;;;9.68;;
61483;SDS011;47349;55.640;37.692;2023-08-06T02:07:14;18.00;;;10.05;;
61483;SDS011;47349;55.640;37.692;2023-08-06T02:10:00;25.85;;;10.98;;
61483;SDS011;47349;55.640;37.692;2023-08-06T02:12:44;26.83;;;10.23;;
61483;SDS011;47349;55.640;37.692;2023-08-06T02:15:52;27.20;;;11.07;;
61483;SDS011;47349;55.640;37.692;2023-08-06T02:23:24;38.67;;;11.25;;
61483;SDS011;47349;55.640;37.692;2023-08-06T02:28:14;24.58;;;10.20;;
61483;SDS011;47349;55.640;37.692;2023-08-06T02:32:37;27.42;;;9.73;;
61483;SDS011;47349;55.640;37.692;2023-08-06T02:35:50;20.35;;;10.13;;
61483;SDS011;47349;55.640;37.692;2023-08-06T02:38:45;16.50;;;9.93;;
61483;SDS011;47349;55.640;37.692;2023-08-06T02:41:30;15.90;;;10.10;;
61483;SDS011;47349;55.640;37.692;2023-08-06T02:44:13;18.35;;;10.20;;
61483;SDS011;47349;55.640;37.692;2023-08-06T02:46:57;15.98;;;9.98;;
61483;SDS011;47349;55.640;37.692;2023-08-06T02:49:41;20.10;;;10.57;;
61483;SDS011;47349;55.640;37.692;2023-08-06T02:52:33;18.05;;;10.77;;
61483;SDS011;47349;55.640;37.692;2023-08-06T02:55:44;20.27;;;9.90;;
61483;SDS011;47349;55.640;37.692;2023-08-06T03:02:24;19.20;;;10.02;;
61483;SDS011;47349;55.640;37.692;2023-08-06T03:06:04;17.13;;;9.68;;
61483;SDS011;47349;55.640;37.692;2023-08-06T03:09:18;16.92;;;11.02;;
61483;SDS011;47349;55.640;37.692;2023-08-06T03:12:32;17.65;;;9.68;;
61483;SDS011;47349;55.640;37.692;2023-08-06T03:15:35;16.15;;;10.20;;
61483;SDS011;47349;55.640;37.692;2023-08-06T03:18:45;18.98;;;10.10;;
61483;SDS011;47349;55.640;37.692;2023-08-06T03:21:27;16.20;;;10.70;;
61483;SDS011;47349;55.640;37.692;2023-08-06T03:24:08;23.08;;;11.30;;
61483;SDS011;47349;55.640;37.692;2023-08-06T03:26:53;20.92;;;10.95;;
61483;SDS011;47349;55.640;37.692;2023-08-06T03:29:41;16.23;;;10.90;;
61483;SDS011;47349;55.640;37.692;2023-08-06T03:32:27;12.30;;;9.80;;
61483;SDS011;47349;55.640;37.692;2023-08-06T03:35:19;20.20;;;10.73;;
61483;SDS011;47349;55.640;37.692;2023-08-06T03:38:02;15.73;;;10.43;;
61483;SDS011;47349;55.640;37.692;2023-08-06T03:40:46;15.68;;;11.05;;
61483;SDS011;47349;55.640;37.692;2023-08-06T03:43:29;17.58;;;10.70;;
61483;SDS011;47349;55.640;37.692;2023-08-06T03:46:21;25.13;;;10.57;;
61483;SDS011;47349;55.640;37.692;2023-08-06T03:49:06;19.20;;;11.27;;
61483;SDS011;47349;55.640;37.692;2023-08-06T03:51:48;19.23;;;10.70;;
61483;SDS011;47349;55.640;37.692;2023-08-06T03:54:29;16.85;;;10.57;;
61483;SDS011;47349;55.640;37.692;2023-08-06T03:57:11;20.05;;;10.95;;
61483;SDS011;47349;55.640;37.692;2023-08-06T04:29:05;16.55;;;11.68;;
61483;SDS011;47349;55.640;37.692;2023-08-06T04:31:53;17.77;;;12.05;;
61483;SDS011;47349;55.640;37.692;2023-08-06T04:38:16;18.67;;;11.30;;
61483;SDS011;47349;55.640;37.692;2023-08-06T04:56:35;21.77;;;12.30;;
61483;SDS011;47349;55.640;37.692;2023-08-06T04:59:17;20.52;;;11.85;;
61483;SDS011;47349;55.640;37.692;2023-08-06T05:02:01;15.93;;;11.13;;
61483;SDS011;47349;55.640;37.692;2023-08-06T05:07:56;17.10;;;11.25;;
61483;SDS011;47349;55.640;37.692;2023-08-06T05:10:41;18.75;;;11.25;;
61483;SDS011;47349;55.640;37.692;2023-08-06T05:13:24;16.17;;;10.75;;
61483;SDS011;47349;55.640;37.692;2023-08-06T05:16:09;18.73;;;11.60;;
61483;SDS011;47349;55.640;37.692;2023-08-06T05:58:47;18.95;;;10.98;;
61483;SDS011;47349;55.640;37.692;2023-08-06T19:07:16;17.25;;;8.90;;
61483;SDS011;47349;55.640;37.692;2023-08-06T19:10:18;15.73;;;7.97;;
61483;SDS011;47349;55.640;37.692;2023-08-06T19:38:09;17.08;;;9.13;;
61483;SDS011;47349;55.640;37.692;2023-08-06T20:09:29;14.45;;;9.25;;
61483;SDS011;47349;55.640;37.692;2023-08-06T20:12:07;16.08;;;10.05;;
61483;SDS011;47349;55.640;37.692;2023-08-06T20:14:38;18.30;;;9.70;;
61483;SDS011;47349;55.640;37.692;2023-08-06T20:36:58;15.90;;;9.98;;
61483;SDS011;47349;55.640;37.692;2023-08-06T22:21:05;13.75;;;7.13;;
61483;SDS011;47349;55.640;37.692;2023-08-06T23:06:01;19.25;;;8.45;;
61483;SDS011;47349;55.640;37.692;2023-08-06T23:09:12;18.23;;;8.02;;
61483;SDS011;47349;55.640;37.692;2023-08-06T23:11:42;18.13;;;8.10;;
61483;SDS011;47349;55.640;37.692;2023-08-06T23:14:11;21.40;;;7.88;;
